Time;durP1;ratioP1;P1;durP2;ratioP2;P2;SDS_P1;SDS_P2;PMS_P1;PMS_P2;Temp;Humidity;BMP_temperature;BMP_pressure;BME280_temperature;BME280_humidity;BME280_pressure;Samples;Min_cycle;Max_cycle;Signal;HPM_P1;HPM_P2
2024/03/27 00:02:19;;;;;;;12.52;8.20;;;10.00;74.90;;;;;;5046480;28;20021;-63
2024/03/27 00:04:45;;;;;;;11.23;7.75;;;10.00;75.00;;;;;;5045021;28;20074;-62
2024/03/27 00:07:11;;;;;;;11.50;7.75;;;10.00;75.10;;;;;;5048357;28;20489;-63
2024/03/27 00:09:36;;;;;;;12.48;7.35;;;10.10;74.90;;;;;;5041895;28;20068;-62
2024/03/27 00:12:02;;;;;;;10.57;7.65;;;10.00;75.00;;;;;;5052858;28;20032;-63
2024/03/27 00:14:28;;;;;;;11.35;7.72;;;10.00;75.00;;;;;;5046094;28;20071;-63
2024/03/27 00:16:53;;;;;;;11.75;7.93;;;10.00;75.10;;;;;;5044934;28;20044;-63
2024/03/27 00:19:19;;;;;;;16.55;8.02;;;10.00;75.10;;;;;;5046186;28;20408;-62
2024/03/27 00:21:45;;;;;;;14.50;7.90;;;10.00;75.10;;;;;;5046284;28;20037;-63
2024/03/27 00:24:10;;;;;;;11.25;7.88;;;10.00;75.10;;;;;;5046450;28;20402;-63
2024/03/27 00:26:36;;;;;;;12.77;8.40;;;10.00;75.20;;;;;;5047564;28;20029;-63
2024/03/27 00:29:01;;;;;;;13.50;7.90;;;9.90;75.40;;;;;;5041806;28;20462;-63
2024/03/27 00:31:28;;;;;;;12.52;8.10;;;9.90;75.30;;;;;;5045525;28;20079;-63
2024/03/27 00:33:54;;;;;;;10.18;7.55;;;9.90;75.40;;;;;;5044907;28;20160;-63
2024/03/27 00:36:19;;;;;;;12.40;7.45;;;9.90;75.40;;;;;;5047184;28;20116;-62
2024/03/27 00:38:45;;;;;;;13.63;7.20;;;9.90;75.40;;;;;;5045182;28;20508;-63
2024/03/27 00:41:11;;;;;;;10.07;6.78;;;9.90;75.40;;;;;;5044698;28;20028;-62
2024/03/27 00:43:36;;;;;;;10.10;7.32;;;9.80;75.40;;;;;;5046244;28;20032;-61
2024/03/27 00:46:04;;;;;;;10.35;7.05;;;9.90;75.60;;;;;;5042242;28;20032;-62
2024/03/27 00:48:29;;;;;;;11.93;6.65;;;9.80;75.70;;;;;;5043517;28;20405;-61
2024/03/27 00:50:55;;;;;;;13.23;7.38;;;9.80;75.60;;;;;;5043574;28;20044;-63
2024/03/27 00:53:21;;;;;;;12.75;7.20;;;9.80;75.80;;;;;;5045667;28;20048;-62
2024/03/27 00:56:03;;;;;;;13.57;7.47;;;9.70;75.60;;;;;;5045396;28;20040;-62
2024/03/27 00:58:29;;;;;;;10.15;6.93;;;9.70;76.30;;;;;;5042806;28;20022;-62
2024/03/27 01:00:56;;;;;;;10.15;6.78;;;9.70;75.60;;;;;;5041281;28;20094;-62
2024/03/27 01:03:23;;;;;;;9.95;7.03;;;9.70;75.60;;;;;;5045582;28;20056;-61
2024/03/27 01:05:49;;;;;;;14.02;7.53;;;9.70;75.70;;;;;;5044937;28;20108;-63
2024/03/27 01:08:14;;;;;;;12.48;7.60;;;9.70;75.60;;;;;;5043388;28;20135;-62
2024/03/27 01:10:40;;;;;;;10.35;7.07;;;9.70;75.60;;;;;;5048650;28;20037;-61
2024/03/27 01:13:09;;;;;;;13.90;7.10;;;9.70;75.60;;;;;;5042495;28;20106;-62
2024/03/27 01:15:36;;;;;;;10.07;6.80;;;9.60;75.40;;;;;;5046051;28;20087;-62
2024/03/27 01:18:03;;;;;;;13.63;7.18;;;9.60;75.30;;;;;;5042291;28;20509;-62
2024/03/27 01:20:29;;;;;;;13.80;7.72;;;9.60;75.30;;;;;;5043240;28;20520;-62
2024/03/27 01:22:58;;;;;;;11.55;6.20;;;9.60;75.30;;;;;;5046949;28;20035;-62
2024/03/27 01:25:24;;;;;;;10.88;6.97;;;9.50;75.40;;;;;;5042544;28;20034;-60
2024/03/27 01:27:50;;;;;;;10.77;7.03;;;9.50;75.40;;;;;;5041976;28;20472;-62
2024/03/27 01:30:16;;;;;;;17.00;7.32;;;9.50;75.60;;;;;;5043022;28;20056;-63
2024/03/27 01:32:42;;;;;;;12.88;6.95;;;9.40;75.50;;;;;;5043563;28;20064;-62
2024/03/27 01:35:08;;;;;;;10.00;7.00;;;9.40;75.60;;;;;;5043194;28;20117;-61
2024/03/27 01:37:34;;;;;;;13.63;7.20;;;9.30;75.60;;;;;;5046989;28;20432;-62
2024/03/27 01:39:59;;;;;;;11.75;7.00;;;9.30;75.70;;;;;;5045195;28;20045;-61
2024/03/27 01:42:25;;;;;;;11.45;7.20;;;9.20;75.80;;;;;;5047932;28;20108;-62
2024/03/27 01:44:51;;;;;;;11.60;6.93;;;9.20;76.70;;;;;;5047894;28;20492;-62
2024/03/27 01:47:16;;;;;;;9.55;7.00;;;9.10;75.90;;;;;;5039777;28;20452;-62
2024/03/27 01:49:43;;;;;;;9.57;6.22;;;9.10;76.00;;;;;;5044483;28;20044;-62
2024/03/27 01:52:10;;;;;;;9.70;7.03;;;9.00;76.10;;;;;;5048565;28;20033;-62
2024/03/27 01:54:37;;;;;;;11.40;7.10;;;9.00;76.20;;;;;;5046715;28;20045;-62
2024/03/27 01:57:04;;;;;;;10.35;6.93;;;9.00;76.30;;;;;;5040487;28;20319;-62
2024/03/27 01:59:29;;;;;;;8.57;6.63;;;8.90;76.30;;;;;;5042917;28;20578;-61
2024/03/27 02:01:56;;;;;;;10.07;7.43;;;8.90;76.30;;;;;;5043799;28;20068;-61
2024/03/27 02:04:22;;;;;;;12.32;7.47;;;8.90;76.30;;;;;;5044758;28;20405;-61
2024/03/27 02:06:48;;;;;;;10.40;7.55;;;8.90;76.50;;;;;;5044538;28;20037;-62
2024/03/27 02:09:14;;;;;;;11.82;7.45;;;8.80;76.30;;;;;;5045625;28;20041;-62
2024/03/27 02:11:40;;;;;;;9.43;6.78;;;8.80;76.30;;;;;;5040560;28;21442;-63
2024/03/27 02:14:06;;;;;;;8.18;6.13;;;8.80;76.30;;;;;;5041130;28;20426;-62
2024/03/27 02:16:31;;;;;;;8.90;6.47;;;8.70;76.30;;;;;;5037639;28;20058;-62
2024/03/27 02:18:57;;;;;;;10.68;6.63;;;8.70;76.20;;;;;;5047872;28;20098;-62
2024/03/27 02:21:24;;;;;;;8.77;6.75;;;8.70;76.30;;;;;;5047657;28;20049;-62
2024/03/27 02:24:15;;;;;;;10.25;6.65;;;8.60;76.40;;;;;;5044385;28;20112;-63
2024/03/27 02:26:42;;;;;;;9.52;6.57;;;8.60;76.60;;;;;;5040347;28;20041;-62
2024/03/27 02:29:07;;;;;;;14.05;7.80;;;8.60;76.30;;;;;;5041774;28;20049;-61
2024/03/27 02:31:33;;;;;;;13.10;7.53;;;8.60;76.40;;;;;;5046457;28;20063;-60
2024/03/27 02:33:58;;;;;;;9.57;6.53;;;8.50;76.50;;;;;;5041513;28;20045;-62
2024/03/27 02:36:24;;;;;;;8.80;7.03;;;8.50;76.60;;;;;;5042824;28;20123;-62
2024/03/27 02:38:49;;;;;;;11.27;7.03;;;8.40;76.60;;;;;;5041655;28;20548;-62
2024/03/27 02:41:15;;;;;;;12.63;7.22;;;8.40;76.80;;;;;;5045558;28;20048;-60
2024/03/27 02:43:41;;;;;;;10.30;6.93;;;8.30;76.80;;;;;;5045877;28;20037;-62
2024/03/27 02:46:06;;;;;;;10.07;6.75;;;8.30;77.00;;;;;;5041221;28;20187;-62
2024/03/27 02:48:32;;;;;;;10.13;6.85;;;8.20;77.00;;;;;;5039558;28;20044;-62
2024/03/27 02:50:58;;;;;;;9.75;7.07;;;8.20;77.10;;;;;;5042361;28;20423;-62
2024/03/27 02:53:23;;;;;;;8.35;6.90;;;8.20;77.20;;;;;;5046690;28;20025;-63
2024/03/27 02:55:52;;;;;;;9.50;6.50;;;8.20;77.10;;;;;;5042881;28;20124;-62
2024/03/27 02:58:18;;;;;;;8.48;6.57;;;8.20;77.00;;;;;;5042673;28;20087;-63
2024/03/27 03:00:45;;;;;;;10.13;6.45;;;8.20;77.00;;;;;;5040105;28;20045;-62
2024/03/27 03:03:14;;;;;;;8.73;6.70;;;8.20;77.00;;;;;;5039947;28;20049;-61
2024/03/27 03:05:42;;;;;;;11.18;6.80;;;8.20;77.00;;;;;;5042586;28;20045;-62
2024/03/27 03:08:07;;;;;;;9.40;7.30;;;8.10;77.00;;;;;;5045409;28;20037;-62
2024/03/27 03:10:33;;;;;;;9.88;7.05;;;8.10;77.00;;;;;;5041725;28;20063;-61
2024/03/27 03:12:59;;;;;;;13.20;6.95;;;8.10;77.00;;;;;;5044321;28;20542;-61
2024/03/27 03:15:24;;;;;;;11.60;7.45;;;8.10;77.10;;;;;;5043784;28;20033;-60
2024/03/27 03:17:50;;;;;;;11.05;7.07;;;8.10;77.00;;;;;;5042492;28;20063;-63
2024/03/27 03:20:16;;;;;;;8.90;6.68;;;8.10;77.10;;;;;;5041613;28;20021;-62
2024/03/27 03:22:42;;;;;;;8.75;6.50;;;8.10;77.10;;;;;;5039565;28;20037;-62
2024/03/27 03:25:08;;;;;;;10.82;7.25;;;8.10;77.00;;;;;;5039116;28;20116;-62
2024/03/27 03:27:33;;;;;;;11.05;7.15;;;8.10;77.10;;;;;;5039276;28;20200;-61
2024/03/27 03:29:59;;;;;;;8.60;6.68;;;8.10;76.90;;;;;;5046042;28;20029;-63
2024/03/27 03:32:25;;;;;;;8.30;6.50;;;8.10;76.80;;;;;;5045290;28;20037;-62
2024/03/27 03:34:51;;;;;;;9.25;7.03;;;8.10;76.80;;;;;;5038361;28;20082;-62
2024/03/27 03:37:17;;;;;;;8.57;6.75;;;8.10;76.80;;;;;;5050401;28;20061;-63
2024/03/27 03:39:42;;;;;;;8.50;6.75;;;8.10;76.70;;;;;;5052259;28;20175;-62
2024/03/27 03:42:08;;;;;;;8.73;6.78;;;8.10;76.60;;;;;;5049748;28;20453;-63
2024/03/27 03:44:34;;;;;;;9.10;6.72;;;8.10;76.60;;;;;;5049791;28;20095;-62
2024/03/27 03:46:59;;;;;;;8.98;6.85;;;8.10;76.50;;;;;;5048751;28;20033;-62
2024/03/27 03:49:25;;;;;;;11.63;6.78;;;8.10;76.50;;;;;;5047874;28;20030;-63
2024/03/27 03:51:50;;;;;;;8.55;6.53;;;8.10;76.40;;;;;;5046400;28;20041;-63
2024/03/27 03:54:16;;;;;;;9.88;6.75;;;8.10;76.40;;;;;;5050812;28;20037;-61
2024/03/27 03:56:41;;;;;;;9.85;6.95;;;8.10;76.30;;;;;;5050037;28;20071;-62
2024/03/27 03:59:07;;;;;;;7.85;6.72;;;8.10;76.10;;;;;;5045465;28;20087;-61
2024/03/27 04:01:33;;;;;;;8.05;6.65;;;8.00;76.00;;;;;;5050522;28;20032;-63
2024/03/27 04:03:58;;;;;;;8.98;6.45;;;8.00;76.10;;;;;;5048655;28;20035;-62
2024/03/27 04:06:27;;;;;;;9.40;6.32;;;7.90;76.10;;;;;;5048813;28;20084;-62
2024/03/27 04:08:54;;;;;;;8.57;6.70;;;7.90;76.30;;;;;;5038970;28;20532;-62
2024/03/27 04:11:21;;;;;;;10.40;7.00;;;7.80;76.30;;;;;;5049832;28;20048;-61
2024/03/27 04:13:46;;;;;;;8.63;6.80;;;7.80;76.30;;;;;;5042904;28;20422;-61
2024/03/27 04:16:12;;;;;;;8.95;6.65;;;7.80;76.30;;;;;;5052720;28;20510;-63
2024/03/27 04:18:37;;;;;;;12.70;7.05;;;7.70;76.30;;;;;;5050861;28;20151;-63
2024/03/27 04:21:07;;;;;;;8.73;6.60;;;7.60;76.50;;;;;;5049121;28;20036;-62
2024/03/27 04:23:33;;;;;;;9.05;6.75;;;7.50;76.80;;;;;;5050055;28;20029;-61
2024/03/27 04:25:59;;;;;;;9.82;7.03;;;7.50;77.10;;;;;;5045134;28;20269;-63
2024/03/27 04:28:25;;;;;;;14.95;7.65;;;7.50;77.30;;;;;;5048225;28;20515;-63
2024/03/27 04:30:52;;;;;;;11.02;7.22;;;7.50;77.50;;;;;;5047481;28;20119;-63
2024/03/27 04:33:19;;;;;;;11.93;7.57;;;7.40;77.50;;;;;;5046321;28;20029;-63
2024/03/27 04:35:44;;;;;;;9.57;8.00;;;7.40;77.60;;;;;;5051155;28;20901;-62
2024/03/27 04:38:10;;;;;;;11.00;7.47;;;7.50;77.80;;;;;;5046335;28;20037;-62
2024/03/27 04:40:36;;;;;;;10.93;7.80;;;7.40;77.90;;;;;;5050293;28;20100;-62
2024/03/27 04:43:02;;;;;;;12.05;8.27;;;7.40;77.90;;;;;;5049886;28;20516;-62
2024/03/27 04:45:29;;;;;;;11.48;7.90;;;7.40;78.10;;;;;;5050731;28;20067;-63
2024/03/27 04:47:54;;;;;;;12.55;8.68;;;7.30;78.40;;;;;;5047551;28;20094;-65
2024/03/27 04:50:20;;;;;;;11.75;8.02;;;7.30;78.40;;;;;;5048214;28;20400;-61
2024/03/27 04:52:45;;;;;;;11.90;8.15;;;7.30;78.50;;;;;;5045667;28;20032;-61
2024/03/27 04:55:11;;;;;;;10.32;7.50;;;7.20;78.60;;;;;;5043788;28;20036;-62
2024/03/27 04:57:37;;;;;;;11.77;8.70;;;7.20;78.60;;;;;;5046809;28;20445;-62
2024/03/27 05:00:03;;;;;;;11.32;8.00;;;7.30;78.70;;;;;;5048723;28;20351;-62
2024/03/27 05:02:29;;;;;;;14.75;8.63;;;7.30;78.60;;;;;;5047623;28;20075;-61
2024/03/27 05:04:54;;;;;;;11.63;8.82;;;7.30;78.60;;;;;;5042845;28;20388;-62
2024/03/27 05:07:20;;;;;;;12.40;8.35;;;7.30;78.60;;;;;;5049255;28;20124;-61
2024/03/27 05:09:45;;;;;;;11.50;8.50;;;7.30;78.60;;;;;;5038727;28;20033;-62
2024/03/27 05:12:11;;;;;;;11.50;8.10;;;7.30;78.60;;;;;;5043940;28;20045;-60
2024/03/27 05:14:37;;;;;;;12.70;8.25;;;7.30;78.60;;;;;;5047220;28;20040;-62
2024/03/27 05:17:03;;;;;;;12.02;8.40;;;7.30;78.60;;;;;;5043514;28;20036;-62
2024/03/27 05:19:28;;;;;;;10.40;7.93;;;7.30;78.60;;;;;;5040891;28;20029;-61
2024/03/27 05:21:54;;;;;;;12.35;8.23;;;7.30;78.60;;;;;;5044917;28;20033;-61
2024/03/27 05:24:20;;;;;;;16.05;10.07;;;7.30;78.60;;;;;;5043047;28;20026;-61
2024/03/27 05:26:46;;;;;;;14.25;10.35;;;7.30;78.60;;;;;;5048636;28;20048;-62
2024/03/27 05:29:13;;;;;;;13.45;9.88;;;7.30;78.70;;;;;;5047231;28;20037;-63
2024/03/27 05:31:57;;;;;;;15.77;10.18;;;7.30;78.70;;;;;;5044791;28;20047;-62
2024/03/27 05:34:23;;;;;;;16.15;11.63;;;7.30;79.40;;;;;;5048987;28;20037;-62
2024/03/27 05:36:49;;;;;;;16.13;11.80;;;7.30;78.70;;;;;;5049052;28;20051;-62
2024/03/27 05:39:15;;;;;;;13.65;10.43;;;7.30;78.90;;;;;;5052583;28;20029;-62
2024/03/27 05:41:43;;;;;;;13.80;10.45;;;7.40;78.90;;;;;;5049369;28;20044;-62
2024/03/27 05:44:09;;;;;;;13.23;9.48;;;7.40;79.00;;;;;;5050394;28;20037;-62
2024/03/27 05:46:34;;;;;;;11.45;8.82;;;7.40;78.90;;;;;;5044409;28;20036;-62
2024/03/27 05:49:02;;;;;;;13.45;9.50;;;7.40;79.00;;;;;;5043805;28;20041;-60
2024/03/27 05:51:29;;;;;;;14.48;9.75;;;7.50;79.00;;;;;;5047137;28;20033;-62
2024/03/27 05:53:55;;;;;;;11.45;9.13;;;7.50;78.90;;;;;;5046283;28;20122;-62
2024/03/27 05:56:22;;;;;;;14.40;9.63;;;7.50;79.10;;;;;;5046158;28;20486;-62
2024/03/27 05:58:47;;;;;;;14.80;9.60;;;7.50;79.10;;;;;;5042432;28;20039;-62
2024/03/27 06:01:13;;;;;;;11.50;9.32;;;7.60;79.30;;;;;;5041738;28;20037;-62
2024/03/27 06:03:39;;;;;;;11.50;8.52;;;7.60;79.30;;;;;;5048747;28;20048;-60
2024/03/27 06:06:05;;;;;;;10.93;8.32;;;7.60;79.40;;;;;;5043385;28;20036;-61
2024/03/27 06:08:31;;;;;;;11.48;8.95;;;7.60;79.40;;;;;;5045911;28;20508;-63
2024/03/27 06:10:57;;;;;;;10.88;8.75;;;7.60;80.30;;;;;;5038906;28;20059;-61
2024/03/27 06:13:23;;;;;;;13.20;8.63;;;7.60;79.60;;;;;;5042358;28;20062;-60
2024/03/27 06:15:49;;;;;;;14.98;8.43;;;7.70;79.60;;;;;;5048483;28;20064;-62
2024/03/27 06:18:14;;;;;;;16.20;8.60;;;7.70;79.80;;;;;;5050488;28;20029;-62
2024/03/27 06:20:41;;;;;;;13.10;8.32;;;7.70;79.90;;;;;;5044547;28;20036;-60
2024/03/27 06:23:07;;;;;;;12.60;8.43;;;7.70;79.90;;;;;;5041343;28;20412;-62
2024/03/27 06:25:33;;;;;;;9.45;8.27;;;7.80;80.00;;;;;;5041792;28;20033;-62
2024/03/27 06:27:58;;;;;;;14.68;7.85;;;7.80;80.00;;;;;;5044250;28;20523;-62
2024/03/27 06:30:24;;;;;;;11.65;8.43;;;7.80;80.00;;;;;;5047947;28;20074;-62
2024/03/27 06:32:49;;;;;;;12.48;8.68;;;7.90;80.00;;;;;;5046557;28;20037;-61
2024/03/27 06:35:16;;;;;;;13.07;8.70;;;7.90;80.00;;;;;;5050469;28;20033;-62
2024/03/27 06:37:41;;;;;;;12.90;8.88;;;7.90;80.00;;;;;;5042330;28;20037;-61
2024/03/27 06:40:09;;;;;;;16.95;9.25;;;8.00;80.00;;;;;;5044628;28;20088;-61
2024/03/27 06:42:35;;;;;;;10.90;9.10;;;8.10;80.00;;;;;;5047157;28;20036;-62
2024/03/27 06:45:02;;;;;;;10.73;8.70;;;8.10;80.10;;;;;;5047433;28;20025;-62
2024/03/27 06:47:28;;;;;;;11.63;8.70;;;8.10;80.20;;;;;;5047016;28;20074;-60
2024/03/27 06:49:53;;;;;;;11.82;8.25;;;8.10;80.10;;;;;;5042518;28;20033;-62
2024/03/27 06:52:21;;;;;;;8.88;7.70;;;8.10;80.10;;;;;;5045524;28;20040;-60
2024/03/27 06:54:51;;;;;;;12.32;7.72;;;8.20;80.10;;;;;;5043490;28;20128;-63
2024/03/27 06:57:18;;;;;;;13.18;8.45;;;8.20;80.20;;;;;;5041942;28;20705;-60
2024/03/27 06:59:43;;;;;;;11.65;8.65;;;8.30;80.30;;;;;;5044553;28;20033;-61
2024/03/27 07:02:09;;;;;;;9.90;8.57;;;8.30;80.30;;;;;;5045173;28;20044;-63
2024/03/27 07:04:35;;;;;;;10.93;8.55;;;8.40;80.40;;;;;;5047663;28;20040;-61
2024/03/27 07:07:01;;;;;;;10.52;8.25;;;8.40;80.40;;;;;;5040555;28;20045;-62
2024/03/27 07:09:26;;;;;;;9.82;7.75;;;8.50;80.30;;;;;;5043532;28;20090;-62
2024/03/27 07:11:52;;;;;;;12.32;8.07;;;8.60;80.40;;;;;;5047854;28;20424;-62
2024/03/27 07:14:18;;;;;;;9.85;7.50;;;8.60;80.30;;;;;;5042455;28;20052;-63
2024/03/27 07:16:44;;;;;;;10.82;7.50;;;8.70;80.10;;;;;;5041935;28;20041;-63
2024/03/27 07:19:10;;;;;;;11.55;8.05;;;8.70;80.20;;;;;;5043591;28;20060;-62
2024/03/27 07:21:36;;;;;;;8.68;6.95;;;8.80;80.10;;;;;;5051845;28;20037;-61
2024/03/27 07:24:02;;;;;;;9.93;7.03;;;8.80;80.00;;;;;;5046431;28;20540;-60
2024/03/27 07:26:27;;;;;;;9.20;7.25;;;8.90;79.80;;;;;;5045160;28;20025;-62
2024/03/27 07:28:53;;;;;;;8.68;6.70;;;8.90;79.70;;;;;;5047150;28;20040;-61
2024/03/27 07:31:18;;;;;;;10.05;7.55;;;9.00;79.70;;;;;;5045196;28;20041;-62
2024/03/27 07:33:44;;;;;;;9.90;7.47;;;9.00;79.60;;;;;;5043077;28;20124;-62
2024/03/27 07:36:10;;;;;;;9.75;7.70;;;9.10;79.40;;;;;;5049710;28;20428;-61
2024/03/27 07:38:35;;;;;;;9.48;7.30;;;9.10;79.30;;;;;;5048635;28;20067;-62
2024/03/27 07:41:01;;;;;;;10.65;7.43;;;9.10;79.20;;;;;;5045675;28;20504;-62
2024/03/27 07:43:26;;;;;;;9.00;7.40;;;9.20;79.20;;;;;;5046130;28;20159;-61
2024/03/27 07:45:52;;;;;;;10.80;7.40;;;9.20;78.90;;;;;;5044388;28;20034;-61
2024/03/27 07:48:18;;;;;;;10.57;7.35;;;9.30;79.10;;;;;;5041466;28;20034;-62
2024/03/27 07:50:44;;;;;;;10.15;6.80;;;9.30;79.10;;;;;;5047400;28;20032;-61
2024/03/27 07:53:09;;;;;;;8.98;6.75;;;9.40;79.00;;;;;;5044680;28;20026;-62
2024/03/27 07:55:35;;;;;;;9.20;6.93;;;9.40;78.90;;;;;;5046881;28;20382;-63
2024/03/27 07:58:00;;;;;;;9.63;7.25;;;9.50;78.70;;;;;;5040441;28;20033;-62
2024/03/27 08:00:27;;;;;;;11.25;7.28;;;9.50;78.70;;;;;;5043326;28;20536;-62
2024/03/27 08:02:53;;;;;;;10.00;7.90;;;9.50;78.60;;;;;;5044039;28;20527;-63
2024/03/27 08:05:19;;;;;;;10.20;6.93;;;9.60;78.80;;;;;;5044473;28;20026;-63
2024/03/27 08:07:46;;;;;;;12.52;7.07;;;9.60;79.00;;;;;;5048581;28;20112;-63
2024/03/27 08:10:13;;;;;;;8.68;7.05;;;9.70;78.90;;;;;;5040599;28;20045;-63
2024/03/27 08:12:39;;;;;;;9.77;7.10;;;9.70;78.70;;;;;;5039645;28;20125;-63
2024/03/27 08:15:06;;;;;;;7.72;6.63;;;9.80;78.60;;;;;;5042056;28;20125;-62
2024/03/27 08:17:32;;;;;;;9.30;6.57;;;9.90;78.70;;;;;;5047382;28;20037;-63
2024/03/27 08:19:57;;;;;;;8.88;6.65;;;9.90;78.60;;;;;;5046968;28;20035;-62
2024/03/27 08:22:23;;;;;;;9.63;6.72;;;10.00;78.70;;;;;;5045255;28;20108;-63
2024/03/27 08:24:51;;;;;;;10.32;6.63;;;10.10;78.70;;;;;;5055237;28;20550;-62
2024/03/27 08:27:16;;;;;;;9.05;7.18;;;10.10;78.60;;;;;;5050649;28;20037;-62
2024/03/27 08:29:42;;;;;;;7.57;6.53;;;10.20;78.60;;;;;;5049367;28;20037;-61
2024/03/27 08:32:08;;;;;;;10.43;6.40;;;10.30;78.40;;;;;;5049808;28;20120;-63
2024/03/27 08:34:34;;;;;;;9.63;6.45;;;10.40;78.10;;;;;;5049606;28;20057;-63
2024/03/27 08:37:00;;;;;;;9.40;7.00;;;10.40;77.90;;;;;;5049168;28;20024;-62
2024/03/27 08:39:26;;;;;;;9.38;6.95;;;10.50;77.70;;;;;;5051523;28;20033;-61
2024/03/27 08:41:53;;;;;;;9.40;6.53;;;10.60;77.70;;;;;;5046272;28;20058;-61
2024/03/27 08:44:19;;;;;;;8.63;6.07;;;10.70;77.70;;;;;;5051541;28;20037;-60
2024/03/27 08:46:45;;;;;;;7.40;6.25;;;10.70;77.50;;;;;;5047863;28;20055;-63
2024/03/27 08:49:14;;;;;;;8.18;6.32;;;10.80;77.50;;;;;;5041266;28;20051;-61
2024/03/27 08:51:40;;;;;;;6.93;6.20;;;10.90;77.50;;;;;;5041623;28;20043;-62
2024/03/27 08:54:05;;;;;;;7.10;5.82;;;10.90;77.30;;;;;;5050606;28;20041;-61
2024/03/27 08:56:31;;;;;;;8.73;5.65;;;11.00;77.10;;;;;;5050590;28;20569;-62
2024/03/27 08:58:57;;;;;;;8.20;6.35;;;11.10;76.90;;;;;;5040356;28;20060;-62
2024/03/27 09:01:23;;;;;;;6.50;5.55;;;11.20;76.50;;;;;;5045451;28;20041;-62
2024/03/27 09:03:49;;;;;;;7.10;6.00;;;11.30;76.10;;;;;;5046823;28;20465;-62
2024/03/27 09:06:14;;;;;;;7.70;5.90;;;11.30;76.00;;;;;;5050817;28;20067;-62
2024/03/27 09:08:40;;;;;;;8.65;6.40;;;11.40;75.80;;;;;;5048571;28;20052;-62
2024/03/27 09:11:09;;;;;;;9.30;5.97;;;11.50;75.60;;;;;;5053764;28;20434;-62
2024/03/27 09:13:35;;;;;;;8.60;6.43;;;11.60;75.70;;;;;;5044422;28;20389;-62
2024/03/27 09:16:03;;;;;;;9.25;5.78;;;11.60;75.80;;;;;;5049179;28;20064;-62
2024/03/27 09:18:28;;;;;;;9.15;6.05;;;11.70;75.50;;;;;;5048989;28;20087;-62
2024/03/27 09:20:55;;;;;;;6.80;5.78;;;11.80;75.70;;;;;;5045906;28;20437;-62
2024/03/27 09:23:22;;;;;;;10.07;6.15;;;11.90;75.70;;;;;;5048065;28;20021;-62
2024/03/27 09:25:54;;;;;;;7.38;5.88;;;11.90;75.30;;;;;;5050812;28;20489;-63
2024/03/27 09:28:21;;;;;;;9.27;5.78;;;12.00;75.20;;;;;;5047206;28;20051;-62
2024/03/27 09:30:46;;;;;;;7.47;5.97;;;12.10;75.30;;;;;;5047802;28;20465;-62
2024/03/27 09:33:12;;;;;;;9.45;5.78;;;12.20;75.30;;;;;;5045566;28;20112;-62
2024/03/27 09:35:38;;;;;;;8.70;6.10;;;12.20;75.10;;;;;;5050218;28;20408;-62
2024/03/27 09:38:04;;;;;;;8.98;5.88;;;12.30;74.90;;;;;;5045683;28;20059;-62
2024/03/27 09:40:29;;;;;;;8.50;6.20;;;12.30;74.40;;;;;;5056717;28;20036;-62
2024/03/27 09:42:55;;;;;;;12.70;6.30;;;12.40;74.10;;;;;;5047866;28;20053;-61
2024/03/27 09:45:23;;;;;;;6.78;5.70;;;12.50;74.00;;;;;;5052425;28;20036;-62
2024/03/27 09:47:48;;;;;;;7.75;6.20;;;12.60;74.00;;;;;;5047212;28;20029;-62
2024/03/27 09:50:14;;;;;;;7.97;5.68;;;12.60;74.00;;;;;;5047126;28;20074;-62
2024/03/27 09:52:40;;;;;;;7.85;5.40;;;12.70;73.70;;;;;;5052816;28;20396;-62
2024/03/27 09:55:10;;;;;;;5.93;4.85;;;12.70;73.20;;;;;;5051279;28;20032;-62
2024/03/27 09:57:35;;;;;;;11.98;5.30;;;12.80;72.60;;;;;;5048528;28;20412;-62
2024/03/27 10:00:01;;;;;;;5.93;5.32;;;12.90;72.20;;;;;;5048603;28;20033;-62
2024/03/27 10:02:28;;;;;;;7.60;5.40;;;13.00;72.20;;;;;;5046969;28;20120;-60
2024/03/27 10:04:54;;;;;;;7.32;5.18;;;13.10;72.50;;;;;;5045046;28;20044;-62
2024/03/27 10:07:21;;;;;;;8.93;5.32;;;13.20;72.40;;;;;;5047903;28;20531;-61
2024/03/27 10:09:47;;;;;;;6.05;5.15;;;13.30;72.30;;;;;;5037742;28;20523;-63
2024/03/27 10:12:12;;;;;;;8.98;5.20;;;13.40;72.10;;;;;;5050987;28;20037;-62
2024/03/27 10:14:38;;;;;;;6.63;5.30;;;13.50;72.30;;;;;;5049004;28;20521;-62
2024/03/27 10:17:04;;;;;;;7.57;5.15;;;13.60;72.50;;;;;;5048202;28;20026;-62
2024/03/27 10:19:30;;;;;;;6.82;5.38;;;13.70;72.50;;;;;;5042372;28;20049;-62
2024/03/27 10:21:55;;;;;;;6.53;5.22;;;13.80;72.10;;;;;;5046141;28;20086;-62
2024/03/27 10:24:21;;;;;;;6.00;5.35;;;13.90;72.00;;;;;;5047860;28;20033;-62
2024/03/27 10:26:48;;;;;;;7.82;5.47;;;14.00;72.10;;;;;;5050529;28;20462;-61
2024/03/27 10:29:14;;;;;;;6.82;5.55;;;14.10;71.60;;;;;;5044406;28;20025;-63
2024/03/27 10:31:39;;;;;;;5.80;5.18;;;14.30;71.20;;;;;;5047394;28;20040;-62
2024/03/27 10:34:08;;;;;;;6.55;5.32;;;14.40;70.90;;;;;;5045667;28;20033;-63
2024/03/27 10:36:35;;;;;;;8.88;5.10;;;14.50;70.90;;;;;;5048281;28;20175;-63
2024/03/27 10:39:04;;;;;;;8.52;5.65;;;14.60;70.40;;;;;;5048415;28;20037;-62
2024/03/27 10:41:30;;;;;;;7.38;5.30;;;14.70;70.40;;;;;;5048085;28;20040;-60
2024/03/27 10:43:56;;;;;;;6.00;5.40;;;14.90;69.90;;;;;;5051067;28;20036;-63
2024/03/27 10:46:24;;;;;;;9.35;4.97;;;15.00;70.00;;;;;;5048144;28;20033;-62
2024/03/27 10:48:51;;;;;;;6.03;5.38;;;15.10;70.20;;;;;;5044863;28;20041;-63
2024/03/27 10:51:19;;;;;;;6.85;5.00;;;15.20;70.10;;;;;;5043559;28;20116;-63
2024/03/27 10:53:45;;;;;;;5.82;5.22;;;15.30;70.20;;;;;;5048053;28;20052;-62
2024/03/27 10:56:12;;;;;;;6.55;4.50;;;15.40;69.90;;;;;;5044717;28;20120;-63
2024/03/27 10:58:38;;;;;;;8.30;4.47;;;15.60;69.60;;;;;;5051445;28;20106;-61
2024/03/27 11:01:05;;;;;;;7.03;3.92;;;15.70;69.70;;;;;;5043667;28;20063;-63
2024/03/27 11:03:31;;;;;;;4.22;3.13;;;15.90;69.30;;;;;;5046572;28;20029;-63
2024/03/27 11:05:59;;;;;;;5.53;3.03;;;16.00;67.70;;;;;;5047330;28;20420;-62
2024/03/27 11:08:26;;;;;;;3.58;2.70;;;16.10;65.20;;;;;;5044206;28;20029;-63
2024/03/27 11:11:09;;;;;;;3.80;3.15;;;16.40;64.70;;;;;;5048084;28;20032;-63
2024/03/27 11:13:35;;;;;;;6.70;2.95;;;16.50;62.90;;;;;;5046395;28;20446;-62
2024/03/27 11:16:00;;;;;;;4.93;2.83;;;16.70;64.10;;;;;;5043575;28;20021;-62
2024/03/27 11:18:30;;;;;;;4.15;2.90;;;16.80;63.60;;;;;;5047151;28;20139;-62
2024/03/27 11:20:57;;;;;;;6.43;2.97;;;16.90;63.50;;;;;;5046610;28;20036;-63
2024/03/27 11:23:32;;;;;;;3.38;2.50;;;17.10;62.90;;;;;;5045584;28;20036;-62
2024/03/27 11:25:58;;;;;;;5.00;2.50;;;17.20;61.90;;;;;;5047285;28;20187;-63
2024/03/27 11:28:24;;;;;;;4.45;2.70;;;17.30;61.90;;;;;;5050901;28;20682;-63
2024/03/27 11:30:50;;;;;;;3.88;2.50;;;17.40;62.20;;;;;;5046327;28;20044;-63
2024/03/27 11:33:16;;;;;;;3.47;2.00;;;17.60;60.80;;;;;;5044439;28;20087;-63
2024/03/27 11:35:43;;;;;;;3.63;2.28;;;17.60;61.20;;;;;;5047302;28;20118;-63
2024/03/27 11:38:08;;;;;;;2.78;2.08;;;17.80;61.20;;;;;;5050227;28;20548;-63
2024/03/27 11:40:34;;;;;;;3.08;2.20;;;17.90;60.50;;;;;;5050991;28;20124;-62
2024/03/27 11:43:02;;;;;;;2.10;1.90;;;18.00;60.10;;;;;;5051131;28;20033;-63
2024/03/27 11:45:28;;;;;;;6.15;1.90;;;18.10;60.10;;;;;;5052768;28;20025;-63
2024/03/27 11:47:56;;;;;;;2.13;1.90;;;18.20;60.10;;;;;;5051588;28;20035;-63
2024/03/27 11:50:22;;;;;;;2.33;1.75;;;18.30;58.80;;;;;;5048570;28;20036;-63
2024/03/27 11:52:48;;;;;;;3.40;1.80;;;18.40;59.90;;;;;;5047892;28;20450;-64
2024/03/27 11:55:15;;;;;;;2.83;1.95;;;18.40;58.70;;;;;;5050161;28;20066;-62
2024/03/27 11:57:41;;;;;;;2.35;1.80;;;18.50;57.80;;;;;;5049434;28;20048;-63
2024/03/27 12:00:10;;;;;;;3.35;1.70;;;18.50;57.90;;;;;;5051913;28;20029;-63
2024/03/27 12:02:36;;;;;;;5.78;3.28;;;18.60;58.10;;;;;;5057096;28;20040;-64
2024/03/27 12:05:06;;;;;;;6.53;3.92;;;18.60;57.50;;;;;;5051927;28;20033;-63
2024/03/27 12:07:35;;;;;;;4.72;3.42;;;18.60;56.60;;;;;;5051864;28;20594;-62
2024/03/27 12:10:09;;;;;;;6.82;3.83;;;18.60;56.40;;;;;;5052096;28;20106;-63
2024/03/27 12:12:35;;;;;;;6.88;3.63;;;18.60;56.10;;;;;;5053499;28;20033;-63
2024/03/27 12:15:01;;;;;;;4.60;3.42;;;18.60;57.00;;;;;;5053275;28;20519;-63
2024/03/27 12:17:37;;;;;;;5.30;3.33;;;18.50;56.60;;;;;;5051876;28;20033;-63
2024/03/27 12:20:04;;;;;;;3.90;3.03;;;18.50;55.50;;;;;;5051472;28;20036;-63
2024/03/27 12:22:31;;;;;;;4.35;3.03;;;18.40;56.20;;;;;;5052178;28;20036;-63
2024/03/27 12:24:56;;;;;;;6.35;3.58;;;18.30;55.90;;;;;;5050295;28;20025;-63
2024/03/27 12:27:24;;;;;;;6.85;3.50;;;18.30;54.90;;;;;;5049996;28;20056;-63
2024/03/27 12:29:50;;;;;;;3.10;2.80;;;18.10;55.00;;;;;;5051593;28;20116;-62
2024/03/27 12:32:19;;;;;;;5.35;3.20;;;18.00;55.30;;;;;;5051751;28;20039;-63
2024/03/27 12:34:45;;;;;;;4.47;3.30;;;17.90;56.00;;;;;;5051828;28;20563;-63
2024/03/27 12:37:11;;;;;;;4.28;3.70;;;17.80;56.00;;;;;;5051656;28;20404;-63
2024/03/27 12:39:37;;;;;;;6.13;3.38;;;17.80;56.40;;;;;;5051948;28;20032;-63
2024/03/27 12:42:03;;;;;;;5.40;3.30;;;17.70;56.70;;;;;;5051836;28;20045;-63
2024/03/27 12:44:30;;;;;;;4.85;3.38;;;17.70;55.90;;;;;;5051638;28;20032;-62